Time;durP1;ratioP1;P1;durP2;ratioP2;P2;SDS_P1;SDS_P2;PMS_P1;PMS_P2;Temp;Humidity;BMP_temperature;BMP_pressure;BME280_temperature;BME280_humidity;BME280_pressure;Samples;Min_cycle;Max_cycle;Signal;HPM_P1;HPM_P2
2021/07/26 00:01:00;;;;;;;11.53;9.43;;;;;;;21.85;57.25;99867.88;126669;1090;103025;-79
2021/07/26 00:03:49;;;;;;;13.40;9.57;;;;;;;21.86;57.24;99858.09;126535;1090;114374;-79
2021/07/26 00:06:37;;;;;;;12.17;9.53;;;;;;;21.87;57.70;99859.78;126673;1090;102874;-79
2021/07/26 00:09:25;;;;;;;14.07;10.73;;;;;;;21.88;57.97;99850.84;126589;1090;103799;-79
2021/07/26 00:12:12;;;;;;;11.97;10.73;;;;;;;21.89;58.14;99833.94;126631;1089;102919;-79
2021/07/26 00:15:01;;;;;;;10.80;9.70;;;;;;;21.90;58.04;99832.97;126642;1088;102930;-79
2021/07/26 00:17:48;;;;;;;12.33;10.07;;;;;;;21.88;58.28;99826.95;126493;1090;114178;-79
2021/07/26 00:20:36;;;;;;;11.40;10.30;;;;;;;21.84;58.06;99820.22;126665;1089;102859;-80
2021/07/26 00:23:24;;;;;;;11.80;10.27;;;;;;;21.80;58.12;99824.13;126569;1090;114295;-80
2021/07/26 00:26:13;;;;;;;12.53;10.90;;;;;;;21.75;58.12;99818.38;126705;1090;102991;-80
2021/07/26 00:29:00;;;;;;;11.27;9.93;;;;;;;21.71;58.20;99817.77;126679;1089;114561;-80
2021/07/26 00:31:48;;;;;;;;;;;;;;;21.68;58.35;99821.53;126821;1089;102933;-80
2021/07/26 00:34:35;;;;;;;11.60;10.37;;;;;;;21.71;58.26;99823.08;126630;1090;103023;-80
2021/07/26 00:37:27;;;;;;;11.53;10.33;;;;;;;21.67;58.27;99817.19;126827;1089;102857;-81
2021/07/26 00:40:16;;;;;;;12.23;10.27;;;;;;;21.71;58.83;99807.15;126719;1090;114694;-80
2021/07/26 00:43:05;;;;;;;10.43;9.33;;;;;;;21.74;58.45;99798.95;126823;1088;102936;-80
2021/07/26 00:45:53;;;;;;;11.85;10.20;;;;;;;21.78;59.06;99796.88;126830;1089;102847;-80
2021/07/26 00:48:41;;;;;;;11.33;10.10;;;;;;;21.80;58.77;99795.77;126856;1090;102945;-80
2021/07/26 00:51:29;;;;;;;12.60;10.23;;;;;;;21.85;58.85;99796.20;126753;1090;103010;-79
2021/07/26 00:54:21;;;;;;;11.57;10.37;;;;;;;21.90;58.83;99795.80;126704;1090;114368;-79
2021/07/26 00:57:09;;;;;;;11.35;10.15;;;;;;;21.88;58.49;99789.78;126663;1089;102855;-79
2021/07/26 01:00:01;;;;;;;11.93;10.10;;;;;;;21.88;58.74;99793.27;126544;1090;114741;-79
2021/07/26 01:02:49;;;;;;;12.40;10.67;;;;;;;21.89;59.18;99797.61;126664;1090;102937;-80
2021/07/26 01:05:37;;;;;;;12.67;10.07;;;;;;;21.91;59.15;99787.73;126948;1090;114380;-80
2021/07/26 01:08:25;;;;;;;11.10;10.00;;;;;;;21.96;58.32;99789.98;126694;1089;102880;-80
2021/07/26 01:11:13;;;;;;;12.13;10.60;;;;;;;21.97;58.75;99786.34;126722;1089;113416;-80
2021/07/26 01:14:01;;;;;;;12.83;10.60;;;;;;;21.98;58.69;99786.20;126748;1090;103016;-79
2021/07/26 01:16:49;;;;;;;11.50;10.30;;;;;;;21.98;58.18;99774.75;126809;1090;113365;-79
2021/07/26 01:19:37;;;;;;;11.73;10.47;;;;;;;22.00;57.86;99780.77;126692;1089;103395;-79
2021/07/26 01:22:24;;;;;;;11.73;10.53;;;;;;;22.01;57.80;99775.31;126628;1090;114571;-79
2021/07/26 01:25:13;;;;;;;10.83;9.67;;;;;;;22.01;57.57;99779.78;126710;1090;103015;-79
2021/07/26 01:28:01;;;;;;;13.80;10.07;;;;;;;21.98;57.47;99772.09;126630;1090;102860;-79
2021/07/26 01:30:50;;;;;;;12.03;10.03;;;;;;;21.96;56.86;99768.73;126602;1090;114360;-79
2021/07/26 01:33:40;;;;;;;12.47;10.17;;;;;;;21.94;56.98;99765.38;126727;1090;103099;-80
2021/07/26 01:36:28;;;;;;;11.20;10.10;;;;;;;21.90;56.81;99764.80;126657;1089;113741;-80
2021/07/26 01:39:15;;;;;;;11.03;9.93;;;;;;;21.87;56.71;99773.02;126989;1090;100578;-80
2021/07/26 01:42:05;;;;;;;11.93;10.30;;;;;;;21.83;56.09;99763.64;126655;1089;114218;-80
2021/07/26 01:44:56;;;;;;;11.30;9.67;;;;;;;21.81;56.50;99767.41;126908;1090;102959;-80
2021/07/26 01:47:54;;;;;;;10.90;9.70;;;;;;;21.80;56.00;99773.69;126875;1090;114149;-79
2021/07/26 01:50:52;;;;;;;11.40;10.03;;;;;;;21.79;55.70;99766.70;126743;1090;102822;-79
2021/07/26 01:53:42;;;;;;;11.10;9.87;;;;;;;21.81;55.89;99767.41;126866;1090;114341;-79
2021/07/26 01:56:32;;;;;;;12.00;9.30;;;;;;;21.82;55.76;99766.42;126759;1089;102799;-79
2021/07/26 01:59:19;;;;;;;10.43;9.43;;;;;;;21.81;56.06;99757.63;126723;1089;114208;-79
2021/07/26 02:02:07;;;;;;;11.80;9.90;;;;;;;21.80;55.82;99750.64;126879;1089;102852;-79
2021/07/26 02:04:56;;;;;;;10.40;9.30;;;;;;;21.81;55.66;99754.13;126713;1089;113233;-79
2021/07/26 02:07:43;;;;;;;11.07;9.80;;;;;;;21.78;55.76;99754.40;126741;1089;103031;-79
2021/07/26 02:10:31;;;;;;;12.53;9.13;;;;;;;21.75;55.18;99757.33;126585;1090;114245;-79
2021/07/26 02:13:19;;;;;;;11.17;9.83;;;;;;;21.74;55.46;99758.30;126640;1090;103035;-79
2021/07/26 02:16:13;;;;;;;12.07;10.83;;;;;;;21.70;55.34;99755.88;126746;1090;102862;-79
2021/07/26 02:19:01;;;;;;;11.13;9.90;;;;;;;21.66;55.41;99746.51;126714;1090;114159;-80
2021/07/26 02:21:51;;;;;;;11.27;9.80;;;;;;;21.64;55.31;99751.11;126706;1090;102849;-80
2021/07/26 02:24:38;;;;;;;12.87;9.60;;;;;;;21.61;55.07;99754.03;126565;1090;113038;-80
2021/07/26 02:27:26;;;;;;;12.70;10.60;;;;;;;21.58;55.09;99753.46;126713;1090;102935;-79
2021/07/26 02:30:13;;;;;;;;;;;;;;;21.57;54.72;99751.78;126786;1089;113172;-79
2021/07/26 02:33:02;;;;;;;11.43;10.23;;;;;;;21.57;54.79;99749.13;126720;1089;102817;-79
2021/07/26 02:35:50;;;;;;;14.30;10.63;;;;;;;21.58;54.69;99753.46;126620;1090;114433;-79
2021/07/26 02:38:37;;;;;;;11.27;9.57;;;;;;;21.60;54.86;99747.05;126741;1088;102879;-79
2021/07/26 02:41:25;;;;;;;12.87;9.97;;;;;;;21.64;54.29;99743.15;126598;1090;113352;-79
2021/07/26 02:44:13;;;;;;;11.70;10.37;;;;;;;21.69;54.61;99734.78;126844;1090;102852;-79
2021/07/26 02:47:01;;;;;;;11.53;9.67;;;;;;;21.75;54.29;99738.74;126617;1090;114539;-79
2021/07/26 02:49:48;;;;;;;11.90;9.20;;;;;;;21.78;54.21;99744.63;126643;1090;102804;-79
2021/07/26 02:52:36;;;;;;;10.30;9.20;;;;;;;21.86;53.73;99728.02;126748;1090;102927;-79
2021/07/26 02:55:24;;;;;;;16.57;9.50;;;;;;;21.91;53.70;99739.09;126712;1090;113901;-79
2021/07/26 02:58:11;;;;;;;;;;;;;;;21.96;53.85;99742.18;126890;1089;102949;-79
2021/07/26 03:00:59;;;;;;;11.63;8.80;;;;;;;22.03;53.55;99743.31;126558;1090;103159;-79
2021/07/26 03:03:47;;;;;;;10.37;9.17;;;;;;;22.10;53.14;99738.36;126650;1090;102910;-80
2021/07/26 03:06:35;;;;;;;9.30;8.40;;;;;;;22.17;53.37;99740.33;126578;1088;114143;-80
2021/07/26 03:09:22;;;;;;;12.77;9.40;;;;;;;22.24;52.91;99735.30;126680;1090;102973;-80
2021/07/26 03:12:10;;;;;;;9.50;8.43;;;;;;;22.29;52.84;99744.56;126587;1090;114109;-79
2021/07/26 03:14:59;;;;;;;12.70;8.70;;;;;;;22.33;52.89;99738.97;126694;1090;102741;-79
2021/07/26 03:17:48;;;;;;;10.30;9.20;;;;;;;22.36;53.02;99730.72;126623;1089;114169;-80
2021/07/26 03:20:36;;;;;;;10.10;9.07;;;;;;;22.37;52.82;99725.27;126680;1090;102919;-80
2021/07/26 03:23:23;;;;;;;12.23;9.30;;;;;;;22.36;52.95;99728.06;126600;1089;113073;-80
2021/07/26 03:26:12;;;;;;;11.73;8.97;;;;;;;22.37;52.49;99724.42;126858;1090;102833;-80
2021/07/26 03:29:00;;;;;;;11.53;9.10;;;;;;;22.36;53.47;99722.75;126694;1090;102918;-79
2021/07/26 03:31:48;;;;;;;9.97;8.93;;;;;;;22.36;52.73;99728.91;126832;1089;102919;-80
2021/07/26 03:34:36;;;;;;;13.10;9.20;;;;;;;22.36;52.83;99726.25;126748;1089;102858;-80
2021/07/26 03:37:23;;;;;;;12.07;8.90;;;;;;;22.38;53.02;99726.94;126603;1090;114158;-79
2021/07/26 03:40:11;;;;;;;11.10;9.37;;;;;;;22.37;53.06;99729.73;126738;1089;102909;-79
2021/07/26 03:43:01;;;;;;;10.63;8.97;;;;;;;22.34;53.15;99730.86;126619;1090;114429;-79
2021/07/26 03:45:50;;;;;;;11.30;9.40;;;;;;;22.35;53.41;99731.70;126854;1090;102472;-80
2021/07/26 03:48:37;;;;;;;12.37;9.20;;;;;;;22.34;53.11;99722.89;126755;1090;114131;-80
2021/07/26 03:51:25;;;;;;;10.40;9.20;;;;;;;22.33;53.19;99728.34;126790;1090;102940;-80
2021/07/26 03:54:12;;;;;;;12.13;9.00;;;;;;;22.35;53.17;99731.70;126797;1089;114165;-80
2021/07/26 03:57:00;;;;;;;10.77;8.57;;;;;;;22.35;53.49;99731.70;126733;1089;101383;-80
2021/07/26 03:59:49;;;;;;;11.73;9.00;;;;;;;22.34;53.41;99724.70;126757;1090;113322;-80
2021/07/26 04:02:36;;;;;;;12.40;9.40;;;;;;;22.31;53.52;99716.03;126700;1088;103011;-80
2021/07/26 04:05:31;;;;;;;10.47;9.03;;;;;;;22.30;53.18;99719.67;126698;1090;103007;-80
2021/07/26 04:08:24;;;;;;;10.43;9.03;;;;;;;22.28;53.66;99724.28;126742;1090;102859;-80
2021/07/26 04:11:21;;;;;;;13.20;9.33;;;;;;;22.27;53.96;99717.30;126702;1090;101837;-80
2021/07/26 04:14:10;;;;;;;10.27;8.87;;;;;;;22.25;54.10;99724.53;126542;1089;113146;-80
2021/07/26 04:16:58;;;;;;;10.93;9.10;;;;;;;22.24;53.56;99725.51;126738;1090;101720;-80
2021/07/26 04:19:46;;;;;;;10.20;8.77;;;;;;;22.24;54.07;99719.36;126548;1090;114170;-80
2021/07/26 04:22:35;;;;;;;10.10;8.87;;;;;;;22.25;53.65;99715.72;126841;1088;102865;-81
2021/07/26 04:25:23;;;;;;;10.70;9.20;;;;;;;22.24;53.71;99722.85;126592;1089;114555;-80
2021/07/26 04:28:17;;;;;;;16.40;9.37;;;;;;;22.25;53.69;99715.72;126624;1089;103121;-79
2021/07/26 04:31:05;;;;;;;11.67;8.90;;;;;;;22.27;53.91;99719.11;126555;1090;114123;-79
2021/07/26 04:33:53;;;;;;;11.53;9.23;;;;;;;22.29;54.08;99725.96;126703;1090;102950;-79
2021/07/26 04:36:40;;;;;;;11.10;8.63;;;;;;;22.30;54.38;99727.64;126612;1090;114385;-80
2021/07/26 04:39:28;;;;;;;13.07;9.43;;;;;;;22.34;53.82;99735.33;126648;1090;102862;-80
2021/07/26 04:42:16;;;;;;;12.57;10.10;;;;;;;22.36;54.13;99733.38;126590;1090;113191;-80
2021/07/26 04:45:05;;;;;;;14.10;9.80;;;;;;;22.38;54.16;99731.42;126749;1090;102968;-80
2021/07/26 04:47:54;;;;;;;13.80;9.57;;;;;;;22.42;54.83;99735.47;126564;1090;114299;-80
2021/07/26 04:50:41;;;;;;;13.17;9.50;;;;;;;22.49;54.22;99723.34;126767;1089;103093;-80
2021/07/26 04:53:33;;;;;;;11.37;9.03;;;;;;;22.52;54.54;99731.87;126678;1090;102830;-80
2021/07/26 04:56:21;;;;;;;12.03;8.57;;;;;;;22.64;54.13;99743.22;126713;1090;114141;-80
2021/07/26 04:59:09;;;;;;;12.63;9.33;;;;;;;22.73;54.03;99731.73;126720;1090;102895;-80
2021/07/26 05:01:57;;;;;;;11.10;9.35;;;;;;;22.80;54.16;99727.56;126679;1089;114095;-80
2021/07/26 05:04:45;;;;;;;19.37;9.20;;;;;;;22.89;54.19;99736.53;126682;1090;101455;-79
2021/07/26 05:07:33;;;;;;;13.07;9.10;;;;;;;23.00;54.19;99727.59;126714;1090;113305;-80
2021/07/26 05:10:21;;;;;;;11.57;9.50;;;;;;;23.14;54.00;99735.11;126607;1089;103026;-80
2021/07/26 05:13:08;;;;;;;17.13;9.40;;;;;;;23.35;53.35;99727.82;126509;1090;114221;-80
2021/07/26 05:15:57;;;;;;;14.37;9.70;;;;;;;23.50;52.73;99733.50;126687;1090;102890;-79
2021/07/26 05:18:45;;;;;;;14.00;9.17;;;;;;;23.61;52.89;99743.18;126652;1090;113146;-80
2021/07/26 05:21:32;;;;;;;10.90;9.03;;;;;;;23.73;52.57;99710.92;126718;1090;102953;-80
2021/07/26 05:24:21;;;;;;;14.97;9.00;;;;;;;23.93;52.20;99717.00;126511;1090;113205;-80
2021/07/26 05:27:08;;;;;;;13.57;9.83;;;;;;;24.04;52.17;99716.78;126744;1089;102913;-80
2021/07/26 05:29:56;;;;;;;11.93;8.97;;;;;;;24.24;51.76;99719.37;126800;1090;102957;-80
2021/07/26 05:32:44;;;;;;;10.73;8.40;;;;;;;25.06;50.91;99732.55;126776;1090;102876;-80
2021/07/26 05:35:33;;;;;;;10.30;8.23;;;;;;;26.41;49.24;99720.31;126849;1090;102879;-80
2021/07/26 05:38:20;;;;;;;10.17;7.90;;;;;;;27.84;47.24;99708.23;126679;1090;114197;-80
2021/07/26 05:41:08;;;;;;;10.23;8.13;;;;;;;29.08;44.88;99713.52;126837;1090;102651;-80
2021/07/26 05:43:56;;;;;;;13.10;7.90;;;;;;;29.96;42.23;99708.24;126765;1090;114168;-79
2021/07/26 05:46:43;;;;;;;11.27;7.77;;;;;;;30.46;40.98;99719.22;126804;1089;103342;-79
2021/07/26 05:49:31;;;;;;;10.23;8.10;;;;;;;30.85;40.28;99719.64;126830;1088;114163;-80
2021/07/26 05:52:19;;;;;;;11.03;7.73;;;;;;;30.89;39.32;99710.18;126793;1089;102731;-80
2021/07/26 05:55:09;;;;;;;10.63;8.17;;;;;;;30.23;39.13;99719.38;126694;1090;114308;-80
2021/07/26 05:58:00;;;;;;;13.03;7.77;;;;;;;29.50;40.50;99717.54;126817;1090;102921;-79
2021/07/26 06:00:58;;;;;;;12.63;8.13;;;;;;;28.55;41.17;99718.79;126679;1090;114848;-80
2021/07/26 06:03:46;;;;;;;10.63;7.93;;;;;;;27.63;42.66;99714.13;126755;1090;103004;-80
2021/07/26 06:06:34;;;;;;;13.30;8.83;;;;;;;26.95;44.45;99738.61;126792;1090;114400;-81
2021/07/26 06:09:23;;;;;;;11.90;8.13;;;;;;;26.47;45.39;99751.73;126843;1090;102675;-80
2021/07/26 06:12:10;;;;;;;15.27;9.17;;;;;;;26.26;46.37;99756.66;126778;1089;102930;-80
2021/07/26 06:14:59;;;;;;;16.95;9.30;;;;;;;26.41;46.21;99754.23;126595;1090;113983;-80
2021/07/26 06:17:47;;;;;;;14.13;9.50;;;;;;;26.11;46.86;99772.46;126710;1090;102860;-80
2021/07/26 06:20:36;;;;;;;10.30;8.30;;;;;;;25.96;47.16;99768.71;126579;1090;114253;-80
2021/07/26 06:23:26;;;;;;;11.70;8.77;;;;;;;26.27;47.19;99758.33;126657;1090;102983;-80
2021/07/26 06:26:15;;;;;;;13.70;8.77;;;;;;;27.07;47.08;99751.50;126762;1090;113106;-80
2021/07/26 06:29:04;;;;;;;18.60;9.10;;;;;;;28.79;44.79;99763.39;126813;1089;101653;-80
2021/07/26 06:31:53;;;;;;;16.43;8.73;;;;;;;30.31;41.43;99767.67;126789;1090;114441;-80
2021/07/26 06:34:43;;;;;;;11.43;8.47;;;;;;;31.35;38.96;99776.27;126787;1090;102861;-81
2021/07/26 06:37:30;;;;;;;11.00;8.57;;;;;;;31.98;37.88;99755.58;126776;1090;114436;-80
2021/07/26 06:40:18;;;;;;;12.07;8.10;;;;;;;32.51;37.32;99753.13;126828;1089;103062;-81
2021/07/26 06:43:05;;;;;;;12.90;8.10;;;;;;;33.30;36.45;99748.67;126682;1089;114334;-78
2021/07/26 06:45:53;;;;;;;10.13;7.33;;;;;;;33.64;35.53;99750.34;126664;1089;102976;-80
2021/07/26 06:48:41;;;;;;;10.47;7.70;;;;;;;32.84;35.78;99759.44;126854;1090;113253;-80
2021/07/26 06:51:29;;;;;;;11.00;7.63;;;;;;;31.56;36.96;99771.66;126882;1088;102882;-80
2021/07/26 06:54:17;;;;;;;9.77;7.60;;;;;;;30.42;38.50;99777.97;126909;1090;102859;-80
2021/07/26 06:57:05;;;;;;;11.13;7.57;;;;;;;29.46;40.58;99776.19;126756;1090;113739;-80
2021/07/26 06:59:53;;;;;;;11.10;8.37;;;;;;;28.38;42.44;99786.12;126844;1090;103313;-80
2021/07/26 07:02:41;;;;;;;10.07;8.97;;;;;;;27.40;44.14;99786.30;126861;1090;113149;-80
2021/07/26 07:05:29;;;;;;;10.97;9.13;;;;;;;26.54;46.46;99789.34;126872;1090;102801;-80
2021/07/26 07:08:17;;;;;;;11.80;9.57;;;;;;;25.72;48.66;99803.31;126742;1090;113040;-80
2021/07/26 07:11:10;;;;;;;11.27;9.50;;;;;;;25.15;48.98;99797.52;126684;1090;102937;-80
2021/07/26 07:13:58;;;;;;;11.47;9.90;;;;;;;24.74;50.68;99798.89;126531;1090;114483;-79
2021/07/26 07:16:46;;;;;;;12.90;10.10;;;;;;;24.39;51.84;99797.84;126641;1090;102884;-80
2021/07/26 07:19:37;;;;;;;15.28;10.50;;;;;;;24.16;52.50;99807.19;126557;1090;114576;-80
2021/07/26 07:22:25;;;;;;;15.07;10.27;;;;;;;23.98;52.78;99793.80;126858;1089;103825;-79
2021/07/26 07:25:14;;;;;;;21.38;9.95;;;;;;;23.87;53.52;99797.45;126650;1088;114438;-79
2021/07/26 07:28:01;;;;;;;11.50;9.33;;;;;;;23.79;53.89;99800.02;126649;1087;102872;-80
2021/07/26 07:30:49;;;;;;;11.83;9.47;;;;;;;23.78;53.85;99793.02;126609;1090;114485;-80
2021/07/26 07:33:38;;;;;;;13.70;10.27;;;;;;;23.81;53.95;99792.73;126711;1089;102882;-80
2021/07/26 07:36:26;;;;;;;12.80;9.10;;;;;;;23.92;53.84;99795.22;126723;1090;102864;-80
2021/07/26 07:39:14;;;;;;;11.73;9.83;;;;;;;23.97;54.02;99794.78;126602;1089;112876;-80
2021/07/26 07:42:04;;;;;;;15.80;10.10;;;;;;;24.01;53.92;99794.33;126656;1088;103016;-80
2021/07/26 07:44:54;;;;;;;10.93;9.30;;;;;;;24.10;53.81;99804.13;126525;1090;114290;-80
2021/07/26 07:47:42;;;;;;;11.57;9.60;;;;;;;24.23;53.70;99800.27;126628;1090;102737;-79
2021/07/26 07:50:30;;;;;;;11.37;9.90;;;;;;;24.22;53.84;99799.42;126525;1089;114352;-79
2021/07/26 07:53:18;;;;;;;11.50;9.60;;;;;;;24.22;53.55;99796.77;126700;1089;103026;-79
2021/07/26 07:56:07;;;;;;;11.80;9.87;;;;;;;24.14;54.02;99790.51;126487;1088;113212;-79
2021/07/26 07:58:59;;;;;;;14.63;9.73;;;;;;;24.05;53.69;99794.88;126614;1089;102881;-79
2021/07/26 08:01:47;;;;;;;12.77;10.50;;;;;;;23.97;53.90;99790.29;126539;1089;114244;-80
2021/07/26 08:04:39;;;;;;;12.17;10.20;;;;;;;23.94;54.12;99795.91;126663;1089;102854;-79
2021/07/26 08:07:42;;;;;;;12.00;10.37;;;;;;;23.91;54.52;99782.89;126774;1089;113453;-79
2021/07/26 08:10:30;;;;;;;13.00;10.00;;;;;;;23.94;54.31;99787.92;126630;1088;102925;-79
2021/07/26 08:13:22;;;;;;;13.20;9.97;;;;;;;23.98;54.29;99783.98;126625;1088;114446;-79
2021/07/26 08:16:11;;;;;;;12.50;11.13;;;;;;;24.09;54.33;99777.63;126845;1090;102676;-79
2021/07/26 08:19:15;;;;;;;13.13;10.63;;;;;;;24.16;54.59;99776.05;126750;1090;114530;-79
2021/07/26 08:22:03;;;;;;;14.10;11.03;;;;;;;24.28;54.75;99780.20;126671;1090;103050;-79
2021/07/26 08:24:51;;;;;;;13.37;10.47;;;;;;;24.36;54.14;99774.16;126723;1089;104076;-79
2021/07/26 08:27:55;;;;;;;10.80;9.70;;;;;;;24.49;53.93;99782.64;126707;1089;100579;-79
2021/07/26 08:30:43;;;;;;;12.53;9.53;;;;;;;24.82;53.96;99778.49;126634;1090;103001;-79
2021/07/26 08:33:31;;;;;;;10.90;9.07;;;;;;;25.19;53.56;99772.19;126713;1090;114397;-80
2021/07/26 08:36:22;;;;;;;12.03;9.93;;;;;;;25.67;52.84;99766.34;126881;1090;102887;-80
2021/07/26 08:39:10;;;;;;;13.87;10.10;;;;;;;26.26;51.61;99763.84;126645;1089;112992;-79
2021/07/26 08:41:58;;;;;;;15.33;9.43;;;;;;;26.65;51.10;99774.84;126592;1089;103079;-79
2021/07/26 08:44:51;;;;;;;12.90;10.10;;;;;;;26.72;50.25;99783.88;126738;1089;114340;-79
2021/07/26 08:47:43;;;;;;;11.77;8.97;;;;;;;26.73;50.12;99777.52;126832;1090;102853;-80
2021/07/26 08:50:34;;;;;;;12.57;11.27;;;;;;;26.58;49.35;99781.86;126585;1089;114464;-79
2021/07/26 08:53:24;;;;;;;13.47;10.80;;;;;;;26.25;49.94;99776.37;126603;1090;102951;-79
2021/07/26 08:56:19;;;;;;;12.37;10.00;;;;;;;26.24;50.40;99771.19;126547;1088;114307;-79
2021/07/26 08:59:11;;;;;;;14.20;11.73;;;;;;;26.66;50.35;99773.84;126675;1090;102705;-79
2021/07/26 09:02:00;;;;;;;16.60;10.80;;;;;;;27.00;49.27;99769.25;126500;1089;114647;-79
2021/07/26 09:04:48;;;;;;;17.50;12.33;;;;;;;27.03;49.03;99784.13;126789;1090;102867;-79
2021/07/26 09:07:41;;;;;;;14.90;12.20;;;;;;;27.01;49.07;99778.11;126546;1090;114478;-78
2021/07/26 09:10:36;;;;;;;15.30;11.33;;;;;;;26.83;48.98;99778.22;126538;1089;102849;-79
2021/07/26 09:13:38;;;;;;;12.97;11.27;;;;;;;26.79;49.48;99776.88;126631;1088;113427;-78
2021/07/26 09:16:26;;;;;;;16.23;13.00;;;;;;;26.47;49.46;99778.48;126619;1090;102863;-78
2021/07/26 09:19:14;;;;;;;20.73;13.90;;;;;;;26.15;50.15;99783.66;126779;1088;102868;-78
2021/07/26 09:22:02;;;;;;;17.97;14.10;;;;;;;26.10;50.95;99785.98;126645;1089;102853;-78
2021/07/26 09:24:50;;;;;;;15.77;14.00;;;;;;;26.17;50.58;99781.66;126570;1089;115075;-78
2021/07/26 09:27:38;;;;;;;12.83;11.53;;;;;;;26.29;49.99;99777.72;126794;1090;102977;-78
2021/07/26 09:30:31;;;;;;;12.60;11.30;;;;;;;26.77;49.72;99774.38;126688;1090;102868;-79
2021/07/26 09:33:29;;;;;;;12.40;11.10;;;;;;;27.07;48.91;99790.81;126599;1090;114091;-79
2021/07/26 09:36:19;;;;;;;12.73;11.43;;;;;;;26.73;49.18;99790.90;126864;1090;103018;-79
2021/07/26 09:39:22;;;;;;;14.60;11.67;;;;;;;26.33;49.56;99787.08;126547;1089;114498;-78
2021/07/26 09:42:27;;;;;;;13.37;12.07;;;;;;;25.87;50.53;99785.72;126847;1090;102890;-79
2021/07/26 09:45:33;;;;;;;16.77;12.83;;;;;;;25.33;51.62;99792.16;126599;1090;114255;-79
2021/07/26 09:48:30;;;;;;;18.13;16.33;;;;;;;24.85;53.06;99794.19;126738;1090;102975;-78
2021/07/26 09:51:27;;;;;;;18.40;15.70;;;;;;;24.43;53.72;99796.58;126570;1090;114187;-79
2021/07/26 09:54:15;;;;;;;19.37;17.37;;;;;;;24.15;54.86;99806.34;126933;1090;103979;-79
2021/07/26 09:57:21;;;;;;;18.73;16.33;;;;;;;23.91;55.39;99804.20;126550;1090;114510;-79
2021/07/26 10:00:11;;;;;;;18.40;15.80;;;;;;;23.82;55.96;99810.38;126760;1090;102857;-78
2021/07/26 10:03:01;;;;;;;19.20;17.07;;;;;;;23.76;56.62;99809.14;126596;1090;114394;-79
2021/07/26 10:05:49;;;;;;;16.63;14.93;;;;;;;23.76;56.96;99805.64;126727;1088;102958;-79
2021/07/26 10:08:37;;;;;;;16.30;14.23;;;;;;;23.92;56.30;99811.20;126714;1088;114461;-79
2021/07/26 10:11:27;;;;;;;15.30;13.60;;;;;;;24.23;56.11;99818.92;126719;1089;103081;-79
2021/07/26 10:14:16;;;;;;;15.67;14.07;;;;;;;24.52;55.66;99809.00;126571;1088;113298;-79
2021/07/26 10:17:04;;;;;;;17.70;13.30;;;;;;;24.82;54.93;99802.50;126670;1089;103007;-79
2021/07/26 10:19:52;;;;;;;17.47;13.57;;;;;;;24.97;54.89;99802.81;126706;1089;114269;-79
2021/07/26 10:22:42;;;;;;;18.00;14.37;;;;;;;25.07;55.01;99798.26;126658;1090;102898;-79
2021/07/26 10:25:38;;;;;;;18.63;14.33;;;;;;;25.08;54.38;99804.44;126597;1089;114702;-79
2021/07/26 10:28:43;;;;;;;13.37;12.00;;;;;;;24.99;54.18;99800.83;126831;1090;103543;-79
2021/07/26 10:31:30;;;;;;;14.93;13.20;;;;;;;25.05;54.61;99797.58;126818;1090;114546;-79
2021/07/26 10:34:34;;;;;;;15.87;14.17;;;;;;;25.04;54.64;99809.24;126699;1090;102920;-79
2021/07/26 10:37:49;;;;;;;18.53;14.33;;;;;;;25.07;54.50;99798.26;126765;1090;114633;-79
2021/07/26 10:40:41;;;;;;;14.00;12.53;;;;;;;25.33;54.94;99801.00;127026;1089;103065;-80
2021/07/26 10:43:54;;;;;;;15.47;12.57;;;;;;;25.51;54.05;99795.63;126745;1090;115772;-80
2021/07/26 10:46:51;;;;;;;14.83;13.07;;;;;;;25.68;53.48;99797.45;126885;1089;102953;-80
2021/07/26 10:49:43;;;;;;;16.27;12.67;;;;;;;25.85;53.33;99791.22;126835;1090;114651;-80
2021/07/26 10:52:37;;;;;;;13.67;12.30;;;;;;;26.18;53.34;99780.66;126663;1089;102913;-78
2021/07/26 10:56:23;;;;;;;14.87;11.80;;;;;;;26.40;52.47;99785.48;126713;1090;114622;-79
2021/07/26 10:59:11;;;;;;;13.13;11.30;;;;;;;26.67;51.46;99773.67;126193;1092;103103;-79
2021/07/26 11:02:02;;;;;;;13.03;11.73;;;;;;;26.65;50.45;99777.52;126111;1092;114518;-79
2021/07/26 11:04:53;;;;;;;13.43;11.53;;;;;;;26.88;50.77;99769.69;126231;1092;102893;-78
2021/07/26 11:07:41;;;;;;;13.57;11.93;;;;;;;27.08;50.16;99785.30;126088;1091;114502;-79
2021/07/26 11:10:49;;;;;;;12.40;11.20;;;;;;;27.17;50.16;99779.96;126241;1093;103153;-79
2021/07/26 11:13:49;;;;;;;14.53;11.47;;;;;;;27.24;49.54;99760.37;126145;1092;114471;-79
2021/07/26 11:16:54;;;;;;;14.27;10.57;;;;;;;27.21;49.28;99767.91;126571;1093;103605;-79
2021/07/26 11:19:46;;;;;;;12.30;11.10;;;;;;;27.21;49.40;99774.09;126248;1093;113432;-79
2021/07/26 11:22:46;;;;;;;16.13;10.97;;;;;;;27.11;49.75;99770.77;126577;1092;103172;-79
2021/07/26 11:25:35;;;;;;;12.90;11.48;;;;;;;27.10;49.36;99779.77;126474;1091;114774;-79
2021/07/26 11:28:23;;;;;;;14.23;11.57;;;;;;;27.13;49.71;99770.59;126309;1093;101806;-79
2021/07/26 11:31:19;;;;;;;14.97;11.23;;;;;;;27.14;49.32;99775.78;126816;1089;102854;-79
2021/07/26 11:34:14;;;;;;;14.23;11.27;;;;;;;27.23;48.98;99752.51;126648;1088;102149;-79
2021/07/26 11:37:09;;;;;;;16.10;11.30;;;;;;;27.44;49.59;99762.70;126683;1090;102827;-79
2021/07/26 11:40:06;;;;;;;10.73;9.63;;;;;;;27.73;49.09;99759.50;126519;1088;114188;-79
2021/07/26 11:42:53;;;;;;;12.57;10.23;;;;;;;27.99;47.98;99749.36;126787;1089;102881;-79
2021/07/26 11:45:47;;;;;;;19.77;10.70;;;;;;;28.09;48.10;99747.31;126552;1090;114231;-79
2021/07/26 11:48:36;;;;;;;9.50;8.60;;;;;;;28.09;47.76;99743.80;126762;1089;102997;-80
2021/07/26 11:51:33;;;;;;;16.03;10.80;;;;;;;27.94;47.21;99735.64;126538;1089;113050;-79
2021/07/26 11:54:29;;;;;;;19.30;10.07;;;;;;;27.90;47.69;99747.73;126681;1090;102959;-79
2021/07/26 11:57:17;;;;;;;14.13;9.70;;;;;;;27.95;47.82;99748.04;126691;1089;114288;-79
2021/07/26 12:00:06;;;;;;;10.83;9.73;;;;;;;28.06;47.28;99734.27;126684;1090;102927;-78
2021/07/26 12:02:58;;;;;;;12.03;9.47;;;;;;;28.01;47.10;99736.64;126696;1090;114103;-79
2021/07/26 12:05:47;;;;;;;11.13;9.43;;;;;;;28.02;47.75;99726.76;126645;1090;102984;-79
2021/07/26 12:08:35;;;;;;;12.63;10.30;;;;;;;27.96;47.38;99723.73;126506;1089;114262;-79
2021/07/26 12:11:23;;;;;;;13.93;9.90;;;;;;;28.02;47.70;99729.44;126627;1088;103010;-79
2021/07/26 12:14:30;;;;;;;12.87;9.30;;;;;;;27.88;47.69;99722.95;126563;1089;114511;-79
2021/07/26 12:17:24;;;;;;;11.97;9.40;;;;;;;27.73;47.82;99727.34;126842;1089;102893;-79
2021/07/26 12:20:21;;;;;;;14.97;9.67;;;;;;;27.87;48.06;99718.60;126583;1088;114319;-79
2021/07/26 12:23:16;;;;;;;20.50;9.43;;;;;;;28.04;46.69;99720.20;126765;1090;103001;-79
2021/07/26 12:26:08;;;;;;;15.73;9.03;;;;;;;28.00;46.98;99718.86;126523;1090;114787;-79
2021/07/26 12:28:58;;;;;;;10.10;9.10;;;;;;;27.97;46.36;99713.85;126842;1090;102933;-79
2021/07/26 12:32:01;;;;;;;12.37;7.90;;;;;;;28.03;46.93;99715.02;126699;1090;114287;-81
2021/07/26 12:35:20;;;;;;;10.60;8.60;;;;;;;27.89;46.98;99717.41;126653;1088;103004;-81
2021/07/26 12:38:17;;;;;;;10.20;8.57;;;;;;;27.89;46.94;99708.54;126523;1090;114379;-79
2021/07/26 12:41:08;;;;;;;10.27;8.87;;;;;;;28.01;47.07;99715.20;126777;1089;102857;-80
2021/07/26 12:44:17;;;;;;;10.37;8.80;;;;;;;28.07;46.74;99702.94;126618;1089;114445;-79
2021/07/26 12:47:24;;;;;;;10.93;8.70;;;;;;;28.28;46.84;99708.55;126673;1088;103049;-78
2021/07/26 12:50:13;;;;;;;13.70;9.10;;;;;;;28.36;46.40;99711.17;126486;1090;114275;-80
2021/07/26 12:53:00;;;;;;;10.30;8.57;;;;;;;28.33;46.09;99702.64;126785;1089;102682;-79